sensor_id;sensor_type;location;lat;lon;timestamp;pressure;altitude;pressure_sealevel;temperature;humidity
57126;BME280;43000;50.770;6.110;2022-07-18T00:02:18;100364.97;;;17.69;50.62
57126;BME280;43000;50.770;6.110;2022-07-18T00:04:45;100353.16;;;17.60;51.25
57126;BME280;43000;50.770;6.110;2022-07-18T00:07:12;100352.06;;;17.50;51.40
57126;BME280;43000;50.770;6.110;2022-07-18T00:09:39;100360.72;;;17.41;51.89
57126;BME280;43000;50.770;6.110;2022-07-18T00:12:08;100358.34;;;17.36;51.12
57126;BME280;43000;50.770;6.110;2022-07-18T00:14:36;100356.97;;;17.30;52.05
57126;BME280;43000;50.770;6.110;2022-07-18T00:17:04;100362.28;;;17.30;51.97
57126;BME280;43000;50.770;6.110;2022-07-18T00:19:32;100371.22;;;17.29;51.29
57126;BME280;43000;50.770;6.110;2022-07-18T00:21:59;100368.69;;;17.28;51.91
57126;BME280;43000;50.770;6.110;2022-07-18T00:24:26;100371.34;;;17.28;51.98
57126;BME280;43000;50.770;6.110;2022-07-18T00:26:53;100370.59;;;17.26;52.12
57126;BME280;43000;50.770;6.110;2022-07-18T00:29:19;100374.09;;;17.13;51.95
57126;BME280;43000;50.770;6.110;2022-07-18T00:31:46;100373.66;;;17.07;52.80
57126;BME280;43000;50.770;6.110;2022-07-18T00:34:13;100369.38;;;17.04;53.01
57126;BME280;43000;50.770;6.110;2022-07-18T00:36:41;100367.09;;;16.98;53.22
57126;BME280;43000;50.770;6.110;2022-07-18T00:39:07;100365.63;;;16.94;53.12
57126;BME280;43000;50.770;6.110;2022-07-18T00:41:34;100365.72;;;16.92;52.97
57126;BME280;43000;50.770;6.110;2022-07-18T00:44:01;100368.78;;;16.86;53.17
57126;BME280;43000;50.770;6.110;2022-07-18T00:46:28;100371.97;;;16.79;53.39
57126;BME280;43000;50.770;6.110;2022-07-18T00:48:55;100361.31;;;16.79;53.04
57126;BME280;43000;50.770;6.110;2022-07-18T00:51:22;100360.06;;;16.70;54.04
57126;BME280;43000;50.770;6.110;2022-07-18T00:53:50;100355.25;;;16.62;54.04
57126;BME280;43000;50.770;6.110;2022-07-18T00:56:18;100363.53;;;16.58;53.67
57126;BME280;43000;50.770;6.110;2022-07-18T00:58:45;100360.09;;;16.56;53.68
57126;BME280;43000;50.770;6.110;2022-07-18T01:01:12;100357.56;;;16.54;53.51
57126;BME280;43000;50.770;6.110;2022-07-18T01:03:56;100348.53;;;16.57;53.54
57126;BME280;43000;50.770;6.110;2022-07-18T01:06:23;100356.59;;;16.55;53.47
57126;BME280;43000;50.770;6.110;2022-07-18T01:08:51;100347.84;;;16.53;53.29
57126;BME280;43000;50.770;6.110;2022-07-18T01:11:17;100350.16;;;16.45;53.94
57126;BME280;43000;50.770;6.110;2022-07-18T01:13:44;100352.47;;;16.37;54.54
57126;BME280;43000;50.770;6.110;2022-07-18T01:16:14;100352.94;;;16.29;54.81
57126;BME280;43000;50.770;6.110;2022-07-18T01:18:44;100350.59;;;16.24;54.38
57126;BME280;43000;50.770;6.110;2022-07-18T01:21:12;100339.19;;;16.22;54.16
57126;BME280;43000;50.770;6.110;2022-07-18T01:23:38;100334.53;;;16.26;54.23
57126;BME280;43000;50.770;6.110;2022-07-18T01:26:05;100329.41;;;16.23;54.72
57126;BME280;43000;50.770;6.110;2022-07-18T01:28:32;100340.34;;;16.18;54.60
57126;BME280;43000;50.770;6.110;2022-07-18T01:30:58;100338.72;;;16.16;54.56
57126;BME280;43000;50.770;6.110;2022-07-18T01:33:25;100335.22;;;16.15;54.62
57126;BME280;43000;50.770;6.110;2022-07-18T01:35:52;100337.13;;;16.13;54.45
57126;BME280;43000;50.770;6.110;2022-07-18T01:38:19;100333.59;;;16.13;54.53
57126;BME280;43000;50.770;6.110;2022-07-18T01:40:46;100325.72;;;16.11;54.67
57126;BME280;43000;50.770;6.110;2022-07-18T01:43:13;100333.97;;;16.06;54.91
57126;BME280;43000;50.770;6.110;2022-07-18T01:45:39;100334.38;;;16.00;54.56
57126;BME280;43000;50.770;6.110;2022-07-18T01:48:06;100337.91;;;15.86;55.14
57126;BME280;43000;50.770;6.110;2022-07-18T01:50:32;100335.63;;;15.80;55.23
57126;BME280;43000;50.770;6.110;2022-07-18T01:52:59;100327.75;;;15.79;55.30
57126;BME280;43000;50.770;6.110;2022-07-18T01:55:27;100329.06;;;15.86;54.94
57126;BME280;43000;50.770;6.110;2022-07-18T01:57:54;100324.81;;;15.83;55.20
57126;BME280;43000;50.770;6.110;2022-07-18T02:00:20;100327.47;;;15.83;55.07
57126;BME280;43000;50.770;6.110;2022-07-18T02:02:47;100333.63;;;15.84;54.86
57126;BME280;43000;50.770;6.110;2022-07-18T02:05:13;100328.13;;;15.73;55.21
57126;BME280;43000;50.770;6.110;2022-07-18T02:07:41;100330.09;;;15.69;55.34
57126;BME280;43000;50.770;6.110;2022-07-18T02:10:09;100319.44;;;15.69;55.39
57126;BME280;43000;50.770;6.110;2022-07-18T02:12:39;100315.69;;;15.73;55.51
57126;BME280;43000;50.770;6.110;2022-07-18T02:15:07;100312.28;;;15.71;55.31
57126;BME280;43000;50.770;6.110;2022-07-18T02:17:34;100308.06;;;15.67;55.43
57126;BME280;43000;50.770;6.110;2022-07-18T02:20:01;100309.28;;;15.61;55.33
57126;BME280;43000;50.770;6.110;2022-07-18T02:22:28;100318.03;;;15.63;55.78
57126;BME280;43000;50.770;6.110;2022-07-18T02:24:55;100310.91;;;15.64;55.63
57126;BME280;43000;50.770;6.110;2022-07-18T02:27:21;100315.38;;;15.63;55.60
57126;BME280;43000;50.770;6.110;2022-07-18T02:29:49;100308.25;;;15.64;55.04
57126;BME280;43000;50.770;6.110;2022-07-18T02:32:16;100308.25;;;15.64;55.15
57126;BME280;43000;50.770;6.110;2022-07-18T02:34:43;100310.06;;;15.63;55.30
57126;BME280;43000;50.770;6.110;2022-07-18T02:37:10;100302.84;;;15.65;54.60
57126;BME280;43000;50.770;6.110;2022-07-18T02:39:37;100309.38;;;15.60;54.93
57126;BME280;43000;50.770;6.110;2022-07-18T02:42:04;100302.44;;;15.57;55.33
57126;BME280;43000;50.770;6.110;2022-07-18T02:44:31;100304.25;;;15.57;55.25
57126;BME280;43000;50.770;6.110;2022-07-18T02:46:59;100303.50;;;15.55;55.58
57126;BME280;43000;50.770;6.110;2022-07-18T02:49:26;100302.72;;;15.53;55.40
57126;BME280;43000;50.770;6.110;2022-07-18T02:51:59;100312.44;;;15.54;55.73
57126;BME280;43000;50.770;6.110;2022-07-18T02:54:26;100312.31;;;15.55;55.50
57126;BME280;43000;50.770;6.110;2022-07-18T02:56:53;100313.28;;;15.54;55.44
57126;BME280;43000;50.770;6.110;2022-07-18T02:59:20;100313.34;;;15.53;55.38
57126;BME280;43000;50.770;6.110;2022-07-18T03:01:47;100309.84;;;15.52;55.52
57126;BME280;43000;50.770;6.110;2022-07-18T03:04:16;100311.94;;;15.47;55.63
57126;BME280;43000;50.770;6.110;2022-07-18T03:06:43;100313.66;;;15.48;55.56
57126;BME280;43000;50.770;6.110;2022-07-18T03:09:09;100311.19;;;15.45;55.87
57126;BME280;43000;50.770;6.110;2022-07-18T03:11:36;100312.13;;;15.44;55.99
57126;BME280;43000;50.770;6.110;2022-07-18T03:14:03;100318.50;;;15.41;55.82
57126;BME280;43000;50.770;6.110;2022-07-18T03:16:29;100312.50;;;15.38;55.97
57126;BME280;43000;50.770;6.110;2022-07-18T03:18:56;100311.75;;;15.36;55.58
57126;BME280;43000;50.770;6.110;2022-07-18T03:21:24;100302.06;;;15.35;56.01
57126;BME280;43000;50.770;6.110;2022-07-18T03:23:50;100312.78;;;15.33;56.10
57126;BME280;43000;50.770;6.110;2022-07-18T03:26:17;100314.00;;;15.28;56.35
57126;BME280;43000;50.770;6.110;2022-07-18T03:28:44;100303.75;;;15.21;57.01
57126;BME280;43000;50.770;6.110;2022-07-18T03:31:10;100304.22;;;15.14;57.27
57126;BME280;43000;50.770;6.110;2022-07-18T03:33:37;100299.19;;;15.09;57.26
57126;BME280;43000;50.770;6.110;2022-07-18T03:36:04;100296.69;;;15.06;57.58
57126;BME280;43000;50.770;6.110;2022-07-18T03:38:33;100295.66;;;15.09;57.04
57126;BME280;43000;50.770;6.110;2022-07-18T03:41:01;100294.53;;;15.13;56.80
57126;BME280;43000;50.770;6.110;2022-07-18T03:43:27;100298.16;;;15.12;56.61
57126;BME280;43000;50.770;6.110;2022-07-18T03:45:54;100295.50;;;15.12;56.39
57126;BME280;43000;50.770;6.110;2022-07-18T03:48:20;100299.06;;;15.11;56.54
57126;BME280;43000;50.770;6.110;2022-07-18T03:50:47;100297.47;;;15.08;56.57
57126;BME280;43000;50.770;6.110;2022-07-18T03:53:13;100304.66;;;15.06;56.86
57126;BME280;43000;50.770;6.110;2022-07-18T03:55:41;100298.41;;;15.07;56.70
57126;BME280;43000;50.770;6.110;2022-07-18T03:58:08;100293.97;;;15.08;56.73
57126;BME280;43000;50.770;6.110;2022-07-18T04:00:35;100297.09;;;15.14;56.83
57126;BME280;43000;50.770;6.110;2022-07-18T04:03:01;100301.56;;;15.14;57.18
57126;BME280;43000;50.770;6.110;2022-07-18T04:05:28;100305.28;;;15.11;57.36
57126;BME280;43000;50.770;6.110;2022-07-18T04:07:54;100299.19;;;15.09;57.79
57126;BME280;43000;50.770;6.110;2022-07-18T04:10:21;100303.81;;;15.06;58.19
57126;BME280;43000;50.770;6.110;2022-07-18T04:12:50;100302.31;;;15.01;58.62
57126;BME280;43000;50.770;6.110;2022-07-18T04:15:18;100301.53;;;14.99;58.59
57126;BME280;43000;50.770;6.110;2022-07-18T04:17:45;100303.34;;;14.99;58.58
57126;BME280;43000;50.770;6.110;2022-07-18T04:20:13;100290.81;;;15.01;58.75
57126;BME280;43000;50.770;6.110;2022-07-18T04:22:45;100289.88;;;15.02;58.66
57126;BME280;43000;50.770;6.110;2022-07-18T04:25:12;100288.91;;;15.03;58.47
57126;BME280;43000;50.770;6.110;2022-07-18T04:27:38;100286.06;;;15.06;58.36
57126;BME280;43000;50.770;6.110;2022-07-18T04:30:07;100284.59;;;15.16;58.09
57126;BME280;43000;50.770;6.110;2022-07-18T04:32:34;100273.59;;;15.22;57.63
57126;BME280;43000;50.770;6.110;2022-07-18T04:35:01;100275.50;;;15.35;57.18
57126;BME280;43000;50.770;6.110;2022-07-18T04:37:29;100273.13;;;15.44;57.08
57126;BME280;43000;50.770;6.110;2022-07-18T04:39:56;100275.59;;;15.48;57.37
57126;BME280;43000;50.770;6.110;2022-07-18T04:42:23;100270.28;;;15.48;57.71
57126;BME280;43000;50.770;6.110;2022-07-18T04:44:49;100267.34;;;15.52;56.81
57126;BME280;43000;50.770;6.110;2022-07-18T04:47:17;100270.38;;;15.60;57.32
57126;BME280;43000;50.770;6.110;2022-07-18T04:49:44;100269.34;;;15.63;57.77
57126;BME280;43000;50.770;6.110;2022-07-18T04:52:10;100266.28;;;15.69;57.46
57126;BME280;43000;50.770;6.110;2022-07-18T04:54:37;100273.59;;;15.80;57.36
57126;BME280;43000;50.770;6.110;2022-07-18T04:57:03;100268.75;;;15.86;57.29
57126;BME280;43000;50.770;6.110;2022-07-18T04:59:30;100261.25;;;15.93;57.19
57126;BME280;43000;50.770;6.110;2022-07-18T05:01:56;100260.84;;;15.99;57.45
57126;BME280;43000;50.770;6.110;2022-07-18T05:04:25;100264.63;;;16.09;57.22
57126;BME280;43000;50.770;6.110;2022-07-18T05:06:51;100263.19;;;16.18;57.11
57126;BME280;43000;50.770;6.110;2022-07-18T05:09:18;100261.84;;;16.25;57.74
57126;BME280;43000;50.770;6.110;2022-07-18T05:11:44;100264.53;;;16.38;57.55
57126;BME280;43000;50.770;6.110;2022-07-18T05:14:11;100264.50;;;16.52;57.05
57126;BME280;43000;50.770;6.110;2022-07-18T05:16:37;100259.63;;;16.59;57.45
57126;BME280;43000;50.770;6.110;2022-07-18T05:19:04;100266.13;;;16.68;57.08
57126;BME280;43000;50.770;6.110;2022-07-18T05:21:32;100263.81;;;16.76;57.46
57126;BME280;43000;50.770;6.110;2022-07-18T05:23:58;100257.69;;;16.88;56.84
57126;BME280;43000;50.770;6.110;2022-07-18T05:26:25;100262.50;;;16.96;57.71
57126;BME280;43000;50.770;6.110;2022-07-18T05:28:52;100257.28;;;17.07;57.29
57126;BME280;43000;50.770;6.110;2022-07-18T05:31:18;100261.13;;;17.16;57.58
57126;BME280;43000;50.770;6.110;2022-07-18T05:33:45;100258.78;;;17.24;57.38
57126;BME280;43000;50.770;6.110;2022-07-18T05:36:11;100262.50;;;17.34;56.97
57126;BME280;43000;50.770;6.110;2022-07-18T05:38:39;100266.13;;;17.46;57.07
57126;BME280;43000;50.770;6.110;2022-07-18T05:41:06;100264.28;;;17.59;57.65
57126;BME280;43000;50.770;6.110;2022-07-18T05:43:33;100262.56;;;17.71;57.71
57126;BME280;43000;50.770;6.110;2022-07-18T05:45:59;100263.66;;;17.81;57.58
57126;BME280;43000;50.770;6.110;2022-07-18T05:48:26;100260.00;;;17.95;57.78
57126;BME280;43000;50.770;6.110;2022-07-18T05:50:53;100266.31;;;18.18;57.21
57126;BME280;43000;50.770;6.110;2022-07-18T05:53:19;100252.81;;;18.33;57.57
57126;BME280;43000;50.770;6.110;2022-07-18T05:55:47;100261.50;;;18.48;57.29
57126;BME280;43000;50.770;6.110;2022-07-18T05:58:14;100257.06;;;18.59;57.20
57126;BME280;43000;50.770;6.110;2022-07-18T06:00:41;100257.72;;;18.74;57.29
57126;BME280;43000;50.770;6.110;2022-07-18T06:03:07;100253.91;;;18.90;56.70
57126;BME280;43000;50.770;6.110;2022-07-18T06:05:34;100259.78;;;19.06;56.64
57126;BME280;43000;50.770;6.110;2022-07-18T06:08:00;100253.13;;;19.23;56.40
57126;BME280;43000;50.770;6.110;2022-07-18T06:10:27;100252.91;;;19.37;56.13
57126;BME280;43000;50.770;6.110;2022-07-18T06:12:55;100249.88;;;19.53;56.32
57126;BME280;43000;50.770;6.110;2022-07-18T06:15:22;100245.22;;;19.66;56.09
57126;BME280;43000;50.770;6.110;2022-07-18T06:17:49;100249.16;;;19.85;55.73
57126;BME280;43000;50.770;6.110;2022-07-18T06:20:16;100252.63;;;20.08;55.77
57126;BME280;43000;50.770;6.110;2022-07-18T06:22:42;100258.16;;;20.38;54.71
57126;BME280;43000;50.770;6.110;2022-07-18T06:25:09;100249.06;;;20.62;53.81
57126;BME280;43000;50.770;6.110;2022-07-18T06:27:36;100240.72;;;20.76;50.64
57126;BME280;43000;50.770;6.110;2022-07-18T06:30:05;100242.09;;;20.92;50.35
57126;BME280;43000;50.770;6.110;2022-07-18T06:32:33;100243.34;;;21.09;47.81
57126;BME280;43000;50.770;6.110;2022-07-18T06:35:00;100241.59;;;21.29;45.19
57126;BME280;43000;50.770;6.110;2022-07-18T06:37:26;100254.44;;;21.46;49.07
57126;BME280;43000;50.770;6.110;2022-07-18T06:39:53;100247.13;;;21.58;48.57
57126;BME280;43000;50.770;6.110;2022-07-18T06:42:20;100248.47;;;21.73;48.58
57126;BME280;43000;50.770;6.110;2022-07-18T06:44:46;100245.28;;;21.89;48.10
57126;BME280;43000;50.770;6.110;2022-07-18T06:47:14;100247.72;;;22.12;48.39
57126;BME280;43000;50.770;6.110;2022-07-18T06:49:41;100248.81;;;22.40;46.99
57126;BME280;43000;50.770;6.110;2022-07-18T06:52:07;100237.19;;;22.59;46.96
57126;BME280;43000;50.770;6.110;2022-07-18T06:54:37;100238.59;;;22.72;46.70
57126;BME280;43000;50.770;6.110;2022-07-18T06:57:05;100246.06;;;22.88;45.03
57126;BME280;43000;50.770;6.110;2022-07-18T06:59:33;100235.91;;;23.02;45.59
57126;BME280;43000;50.770;6.110;2022-07-18T07:01:59;100238.28;;;23.14;43.50
57126;BME280;43000;50.770;6.110;2022-07-18T07:04:27;100240.63;;;23.37;44.00
57126;BME280;43000;50.770;6.110;2022-07-18T07:06:54;100243.50;;;23.63;41.40
57126;BME280;43000;50.770;6.110;2022-07-18T07:09:21;100235.50;;;23.81;40.98
57126;BME280;43000;50.770;6.110;2022-07-18T07:11:48;100241.75;;;23.99;38.11
57126;BME280;43000;50.770;6.110;2022-07-18T07:14:14;100240.97;;;24.17;37.10
57126;BME280;43000;50.770;6.110;2022-07-18T07:16:41;100247.06;;;24.37;35.71
57126;BME280;43000;50.770;6.110;2022-07-18T07:19:07;100244.06;;;24.58;36.73
57126;BME280;43000;50.770;6.110;2022-07-18T07:21:35;100241.91;;;24.79;34.61
57126;BME280;43000;50.770;6.110;2022-07-18T07:24:02;100239.16;;;24.97;33.77
57126;BME280;43000;50.770;6.110;2022-07-18T07:26:29;100245.78;;;25.21;34.04
57126;BME280;43000;50.770;6.110;2022-07-18T07:28:55;100244.75;;;25.48;33.63
57126;BME280;43000;50.770;6.110;2022-07-18T07:31:22;100238.56;;;25.98;32.81
57126;BME280;43000;50.770;6.110;2022-07-18T07:33:48;100242.59;;;26.61;31.02
57126;BME280;43000;50.770;6.110;2022-07-18T07:36:15;100230.41;;;27.06;30.71
57126;BME280;43000;50.770;6.110;2022-07-18T07:38:43;100224.59;;;27.34;30.66
57126;BME280;43000;50.770;6.110;2022-07-18T07:41:09;100221.13;;;27.56;30.26
57126;BME280;43000;50.770;6.110;2022-07-18T07:43:38;100223.09;;;27.79;30.04
57126;BME280;43000;50.770;6.110;2022-07-18T07:46:05;100220.63;;;28.00;29.55
57126;BME280;43000;50.770;6.110;2022-07-18T07:48:32;100208.34;;;28.13;28.60
57126;BME280;43000;50.770;6.110;2022-07-18T07:50:58;100204.88;;;28.27;28.38
57126;BME280;43000;50.770;6.110;2022-07-18T07:53:25;100201.47;;;28.33;28.12
57126;BME280;43000;50.770;6.110;2022-07-18T07:55:53;100207.66;;;28.42;28.36
57126;BME280;43000;50.770;6.110;2022-07-18T07:58:19;100197.78;;;28.49;28.02
57126;BME280;43000;50.770;6.110;2022-07-18T08:00:46;100203.72;;;28.53;26.78
57126;BME280;43000;50.770;6.110;2022-07-18T08:03:13;100191.06;;;28.60;27.33
57126;BME280;43000;50.770;6.110;2022-07-18T08:05:44;100201.88;;;28.68;27.32
57126;BME280;43000;50.770;6.110;2022-07-18T08:08:11;100199.09;;;28.76;26.93
57126;BME280;43000;50.770;6.110;2022-07-18T08:10:37;100196.38;;;28.91;27.03
57126;BME280;43000;50.770;6.110;2022-07-18T08:13:06;100196.97;;;29.01;26.73
57126;BME280;43000;50.770;6.110;2022-07-18T08:15:32;100204.31;;;29.16;26.97
57126;BME280;43000;50.770;6.110;2022-07-18T08:17:59;100202.81;;;29.28;25.50
57126;BME280;43000;50.770;6.110;2022-07-18T08:20:26;100204.88;;;29.41;25.33
57126;BME280;43000;50.770;6.110;2022-07-18T08:22:54;100199.16;;;29.50;24.69
57126;BME280;43000;50.770;6.110;2022-07-18T08:25:21;100200.75;;;29.60;25.59
57126;BME280;43000;50.770;6.110;2022-07-18T08:27:48;100205.25;;;29.67;25.46
57126;BME280;43000;50.770;6.110;2022-07-18T08:30:16;100197.66;;;29.78;24.37
57126;BME280;43000;50.770;6.110;2022-07-18T08:32:43;100194.19;;;29.84;24.78
57126;BME280;43000;50.770;6.110;2022-07-18T08:35:09;100203.63;;;29.88;24.26
57126;BME280;43000;50.770;6.110;2022-07-18T08:37:36;100202.78;;;29.87;24.26
57126;BME280;43000;50.770;6.110;2022-07-18T08:40:03;100199.81;;;29.82;24.85
57126;BME280;43000;50.770;6.110;2022-07-18T08:42:32;100202.34;;;29.84;24.40
57126;BME280;43000;50.770;6.110;2022-07-18T08:44:59;100204.28;;;29.90;23.27
57126;BME280;43000;50.770;6.110;2022-07-18T08:47:29;100207.53;;;30.00;22.87
57126;BME280;43000;50.770;6.110;2022-07-18T08:49:56;100209.66;;;30.05;22.08
57126;BME280;43000;50.770;6.110;2022-07-18T08:52:23;100202.25;;;30.13;22.58
57126;BME280;43000;50.770;6.110;2022-07-18T08:54:50;100201.19;;;30.29;21.96
57126;BME280;43000;50.770;6.110;2022-07-18T08:57:17;100206.47;;;30.59;21.95
57126;BME280;43000;50.770;6.110;2022-07-18T08:59:44;100198.09;;;30.82;22.01
57126;BME280;43000;50.770;6.110;2022-07-18T09:02:11;100201.19;;;31.00;21.84
57126;BME280;43000;50.770;6.110;2022-07-18T09:04:41;100187.91;;;31.19;21.28
57126;BME280;43000;50.770;6.110;2022-07-18T09:07:09;100195.53;;;31.72;21.18
57126;BME280;43000;50.770;6.110;2022-07-18T09:09:37;100186.25;;;32.34;20.40
57126;BME280;43000;50.770;6.110;2022-07-18T09:12:06;100187.56;;;32.78;19.67
57126;BME280;43000;50.770;6.110;2022-07-18T09:14:35;100187.81;;;33.03;19.82
57126;BME280;43000;50.770;6.110;2022-07-18T09:17:08;100179.53;;;33.30;19.12
57126;BME280;43000;50.770;6.110;2022-07-18T09:19:37;100185.09;;;33.68;19.15
57126;BME280;43000;50.770;6.110;2022-07-18T09:22:13;100181.66;;;34.25;18.46
57126;BME280;43000;50.770;6.110;2022-07-18T09:24:55;100182.47;;;34.57;18.01
57126;BME280;43000;50.770;6.110;2022-07-18T09:27:35;100175.59;;;34.73;17.52
57126;BME280;43000;50.770;6.110;2022-07-18T09:30:20;100180.78;;;35.06;17.28
57126;BME280;43000;50.770;6.110;2022-07-18T09:32:49;100181.50;;;35.57;16.68
57126;BME280;43000;50.770;6.110;2022-07-18T09:35:19;100175.16;;;36.05;16.50
57126;BME280;43000;50.770;6.110;2022-07-18T09:37:58;100170.81;;;36.58;16.45
57126;BME280;43000;50.770;6.110;2022-07-18T09:40:28;100175.47;;;36.81;15.84
57126;BME280;43000;50.770;6.110;2022-07-18T09:42:56;100178.59;;;37.08;15.54
57126;BME280;43000;50.770;6.110;2022-07-18T09:45:25;100180.78;;;37.58;15.21
57126;BME280;43000;50.770;6.110;2022-07-18T09:47:54;100181.41;;;37.89;14.54
57126;BME280;43000;50.770;6.110;2022-07-18T09:50:26;100182.09;;;37.96;14.55
57126;BME280;43000;50.770;6.110;2022-07-18T09:53:11;100180.81;;;38.32;14.60
57126;BME280;43000;50.770;6.110;2022-07-18T09:55:43;100178.63;;;38.46;14.46
57126;BME280;43000;50.770;6.110;2022-07-18T09:58:10;100173.34;;;38.28;14.66
57126;BME280;43000;50.770;6.110;2022-07-18T10:00:39;100175.19;;;38.56;14.26
57126;BME280;43000;50.770;6.110;2022-07-18T10:03:07;100176.41;;;38.31;13.96
57126;BME280;43000;50.770;6.110;2022-07-18T10:05:35;100173.59;;;38.43;14.08
57126;BME280;43000;50.770;6.110;2022-07-18T10:08:06;100174.25;;;38.84;13.79
57126;BME280;43000;50.770;6.110;2022-07-18T10:10:33;100178.84;;;39.34;13.76
57126;BME280;43000;50.770;6.110;2022-07-18T10:13:02;100175.53;;;39.54;13.63
57126;BME280;43000;50.770;6.110;2022-07-18T10:15:31;100175.53;;;39.54;13.46
57126;BME280;43000;50.770;6.110;2022-07-18T10:17:58;100181.75;;;39.44;13.14
57126;BME280;43000;50.770;6.110;2022-07-18T10:20:27;100175.66;;;39.42;13.10
57126;BME280;43000;50.770;6.110;2022-07-18T10:22:58;100177.78;;;39.35;13.26
57126;BME280;43000;50.770;6.110;2022-07-18T10:25:26;100175.09;;;39.40;13.20
57126;BME280;43000;50.770;6.110;2022-07-18T10:27:58;100176.13;;;39.56;13.51
57126;BME280;43000;50.770;6.110;2022-07-18T10:30:33;100179.81;;;39.67;13.61
57126;BME280;43000;50.770;6.110;2022-07-18T10:33:02;100175.72;;;39.69;13.24
57126;BME280;43000;50.770;6.110;2022-07-18T10:36:01;100176.38;;;39.55;13.24
57126;BME280;43000;50.770;6.110;2022-07-18T10:38:28;100165.06;;;39.34;13.36
57126;BME280;43000;50.770;6.110;2022-07-18T10:41:08;100169.34;;;39.25;13.33
57126;BME280;43000;50.770;6.110;2022-07-18T10:43:40;100161.72;;;39.32;13.35
57126;BME280;43000;50.770;6.110;2022-07-18T10:46:08;100165.81;;;39.29;13.22
57126;BME280;43000;50.770;6.110;2022-07-18T10:49:02;100160.53;;;39.45;13.09
57126;BME280;43000;50.770;6.110;2022-07-18T10:51:33;100154.91;;;39.18;13.04
57126;BME280;43000;50.770;6.110;2022-07-18T10:54:12;100154.66;;;39.19;12.98
57126;BME280;43000;50.770;6.110;2022-07-18T10:57:09;100162.25;;;39.29;13.12
57126;BME280;43000;50.770;6.110;2022-07-18T10:59:38;100159.63;;;39.00;13.42
57126;BME280;43000;50.770;6.110;2022-07-18T11:02:06;100159.13;;;38.86;13.94
57126;BME280;43000;50.770;6.110;2022-07-18T11:04:39;100151.16;;;38.51;14.00
57126;BME280;43000;50.770;6.110;2022-07-18T11:07:09;100151.81;;;37.96;14.59
57126;BME280;43000;50.770;6.110;2022-07-18T11:09:39;100149.09;;;37.44;15.04
57126;BME280;43000;50.770;6.110;2022-07-18T11:12:27;100143.81;;;36.78;14.94
57126;BME280;43000;50.770;6.110;2022-07-18T11:15:17;100145.66;;;36.19;15.73
57126;BME280;43000;50.770;6.110;2022-07-18T11:18:01;100144.25;;;35.67;15.88
57126;BME280;43000;50.770;6.110;2022-07-18T11:20:29;100141.59;;;35.24;16.54
57126;BME280;43000;50.770;6.110;2022-07-18T11:23:02;100140.56;;;34.81;16.90
57126;BME280;43000;50.770;6.110;2022-07-18T11:25:29;100143.28;;;34.81;17.11
57126;BME280;43000;50.770;6.110;2022-07-18T11:27:57;100136.03;;;34.69;17.49
57126;BME280;43000;50.770;6.110;2022-07-18T11:30:24;100133.69;;;34.72;17.52
57126;BME280;43000;50.770;6.110;2022-07-18T11:32:51;100127.31;;;34.78;17.45
57126;BME280;43000;50.770;6.110;2022-07-18T11:35:22;100123.19;;;34.88;17.75
57126;BME280;43000;50.770;6.110;2022-07-18T11:37:51;100133.41;;;34.80;17.48
57126;BME280;43000;50.770;6.110;2022-07-18T11:40:18;100124.94;;;34.82;17.03
57126;BME280;43000;50.770;6.110;2022-07-18T11:42:44;100121.91;;;34.72;16.97
57126;BME280;43000;50.770;6.110;2022-07-18T11:45:14;100129.66;;;34.50;17.26
57126;BME280;43000;50.770;6.110;2022-07-18T11:47:46;100121.06;;;34.46;17.34
57126;BME280;43000;50.770;6.110;2022-07-18T11:50:13;100115.19;;;34.42;17.64
57126;BME280;43000;50.770;6.110;2022-07-18T11:52:40;100116.75;;;34.32;17.71
57126;BME280;43000;50.770;6.110;2022-07-18T11:55:11;100120.59;;;34.49;17.76
57126;BME280;43000;50.770;6.110;2022-07-18T11:57:37;100119.81;;;34.42;17.43
57126;BME280;43000;50.770;6.110;2022-07-18T12:00:16;100120.53;;;34.31;17.98
57126;BME280;43000;50.770;6.110;2022-07-18T12:03:05;100114.47;;;34.29;17.46
57126;BME280;43000;50.770;6.110;2022-07-18T12:05:33;100121.44;;;34.25;18.46
57126;BME280;43000;50.770;6.110;2022-07-18T12:08:00;100108.59;;;34.25;17.78
57126;BME280;43000;50.770;6.110;2022-07-18T12:10:27;100106.97;;;34.17;18.30
57126;BME280;43000;50.770;6.110;2022-07-18T12:12:53;100104.91;;;34.06;17.79
57126;BME280;43000;50.770;6.110;2022-07-18T12:15:21;100097.25;;;34.22;17.79
57126;BME280;43000;50.770;6.110;2022-07-18T12:17:48;100102.44;;;34.30;18.31
57126;BME280;43000;50.770;6.110;2022-07-18T12:20:18;100101.78;;;34.34;17.90
57126;BME280;43000;50.770;6.110;2022-07-18T12:23:04;100096.47;;;34.39;18.13
57126;BME280;43000;50.770;6.110;2022-07-18T12:25:38;100092.78;;;34.27;17.96
57126;BME280;43000;50.770;6.110;2022-07-18T12:28:15;100101.88;;;34.21;18.34
57126;BME280;43000;50.770;6.110;2022-07-18T12:30:43;100096.91;;;34.11;18.26
57126;BME280;43000;50.770;6.110;2022-07-18T12:33:10;100095.84;;;34.12;18.25
57126;BME280;43000;50.770;6.110;2022-07-18T12:35:38;100092.50;;;34.04;18.38
57126;BME280;43000;50.770;6.110;2022-07-18T12:38:06;100085.41;;;33.96;18.48
57126;BME280;43000;50.770;6.110;2022-07-18T12:40:46;100089.75;;;34.10;18.73
57126;BME280;43000;50.770;6.110;2022-07-18T12:43:15;100082.13;;;34.19;18.24
57126;BME280;43000;50.770;6.110;2022-07-18T12:45:43;100081.84;;;34.27;18.18
57126;BME280;43000;50.770;6.110;2022-07-18T12:48:11;100082.47;;;34.29;18.67
57126;BME280;43000;50.770;6.110;2022-07-18T12:50:39;100080.25;;;34.38;17.93
57126;BME280;43000;50.770;6.110;2022-07-18T12:53:06;100082.28;;;34.24;17.79
57126;BME280;43000;50.770;6.110;2022-07-18T12:55:33;100081.00;;;34.27;17.99
57126;BME280;43000;50.770;6.110;2022-07-18T12:58:00;100082.28;;;34.24;18.50